createdAt,value
2022-08-19T00:01:57.480Z,59.93
2022-08-19T00:04:29.378Z,60.37
2022-08-19T00:06:57.559Z,59.95
2022-08-19T00:09:25.996Z,60.32
2022-08-19T00:11:56.284Z,60.21
2022-08-19T00:14:49.396Z,60.44
2022-08-19T00:17:18.718Z,60.34
2022-08-19T00:19:46.556Z,60.57
2022-08-19T00:22:14.859Z,60.48
2022-08-19T00:24:44.543Z,60.56
2022-08-19T00:27:26.382Z,61.04
2022-08-19T00:29:54.953Z,61.43
2022-08-19T00:32:25.486Z,62.06
2022-08-19T00:34:55.695Z,62.23
2022-08-19T00:37:26.823Z,62.00
2022-08-19T00:39:56.923Z,62.71
2022-08-19T00:42:29.278Z,62.34
2022-08-19T00:44:57.206Z,62.46
2022-08-19T00:47:26.417Z,64.16
2022-08-19T00:49:59.723Z,63.98
2022-08-19T00:52:30.978Z,64.42
2022-08-19T00:54:59.916Z,64.36
2022-08-19T00:57:31.232Z,64.60
2022-08-19T01:00:03.094Z,64.33
2022-08-19T01:02:34.522Z,64.47
2022-08-19T01:05:06.826Z,66.08
2022-08-19T01:07:38.399Z,66.86
2022-08-19T01:10:09.585Z,66.47
2022-08-19T01:12:37.649Z,66.22
2022-08-19T01:15:06.516Z,67.35
2022-08-19T01:17:38.533Z,67.57
2022-08-19T01:20:08.558Z,67.82
2022-08-19T01:22:44.233Z,67.97
2022-08-19T01:25:15.115Z,68.28
2022-08-19T01:27:45.665Z,68.78
2022-08-19T01:30:17.015Z,68.63
2022-08-19T01:32:45.644Z,69.28
2022-08-19T01:35:16.691Z,69.98
2022-08-19T01:37:49.277Z,69.64
2022-08-19T01:40:18.094Z,69.53
2022-08-19T01:42:46.068Z,70.32
2022-08-19T01:45:14.096Z,70.53
2022-08-19T01:47:42.274Z,70.77
2022-08-19T01:50:13.232Z,70.95
2022-08-19T01:52:42.855Z,70.75
2022-08-19T01:55:15.535Z,70.81
2022-08-19T01:57:48.255Z,70.99
2022-08-19T02:00:18.499Z,70.14
2022-08-19T02:02:46.870Z,70.04
2022-08-19T02:05:14.829Z,69.59
2022-08-19T02:07:42.989Z,71.26
2022-08-19T02:10:16.731Z,70.67
2022-08-19T02:12:45.020Z,71.13
2022-08-19T02:15:13.770Z,70.72
2022-08-19T02:17:42.632Z,71.11
2022-08-19T02:20:12.140Z,71.06
2022-08-19T02:22:42.394Z,70.87
2022-08-19T02:25:13.086Z,70.39
2022-08-19T02:27:41.632Z,71.69
2022-08-19T02:30:14.440Z,71.13
2022-08-19T02:32:45.039Z,70.47
2022-08-19T02:35:14.488Z,71.18
2022-08-19T02:38:00.021Z,70.79
2022-08-19T02:40:30.093Z,71.25
2022-08-19T02:42:58.583Z,71.99
2022-08-19T02:45:26.468Z,72.08
2022-08-19T02:47:54.398Z,71.76
2022-08-19T02:50:22.644Z,71.61
2022-08-19T02:52:50.490Z,72.43
2022-08-19T02:55:18.791Z,71.87
2022-08-19T02:57:47.985Z,71.62
2022-08-19T03:00:16.904Z,71.00
2022-08-19T03:02:44.823Z,71.38
2022-08-19T03:05:12.747Z,70.90
2022-08-19T03:07:40.586Z,70.80
2022-08-19T03:10:10.131Z,70.23
2022-08-19T03:12:39.039Z,70.91
2022-08-19T03:15:09.975Z,69.99
2022-08-19T03:17:38.062Z,70.14
2022-08-19T03:20:06.969Z,69.85
2022-08-19T03:22:43.939Z,69.49
2022-08-19T03:25:13.002Z,69.61
2022-08-19T03:27:40.854Z,68.52
2022-08-19T03:30:12.451Z,68.06
2022-08-19T03:32:45.325Z,68.66
2022-08-19T03:35:15.354Z,68.84
2022-08-19T03:37:43.192Z,69.86
2022-08-19T03:40:16.503Z,69.66
2022-08-19T03:42:49.251Z,70.09
2022-08-19T03:45:19.338Z,70.02
2022-08-19T03:47:47.514Z,69.34
2022-08-19T03:50:15.348Z,70.16
2022-08-19T03:52:45.316Z,69.96
2022-08-19T03:55:15.086Z,69.81
2022-08-19T03:57:43.009Z,70.22
2022-08-19T04:00:13.384Z,69.99
2022-08-19T04:02:56.427Z,70.04
2022-08-19T04:05:29.458Z,70.29
2022-08-19T04:08:00.158Z,70.58
2022-08-19T04:10:29.144Z,70.35
2022-08-19T04:12:56.999Z,70.15
2022-08-19T04:15:24.933Z,70.40
2022-08-19T04:17:54.168Z,70.17
2022-08-19T04:20:22.091Z,70.01
2022-08-19T04:22:50.213Z,69.60
2022-08-19T04:25:18.319Z,69.00
2022-08-19T04:27:47.357Z,68.98
2022-08-19T04:30:16.491Z,69.05
2022-08-19T04:32:45.661Z,69.27
2022-08-19T04:35:17.689Z,68.82
2022-08-19T04:37:46.895Z,67.99
2022-08-19T04:40:32.857Z,67.29
2022-08-19T04:43:02.222Z,67.04
2022-08-19T04:45:39.541Z,66.60
2022-08-19T04:48:26.473Z,66.43
2022-08-19T04:50:59.428Z,66.71
2022-08-19T04:53:29.633Z,66.42
2022-08-19T04:56:08.984Z,65.83
2022-08-19T04:58:38.248Z,65.63
2022-08-19T05:01:06.613Z,65.21
2022-08-19T05:03:35.131Z,65.58
2022-08-19T05:06:08.560Z,65.65
2022-08-19T05:08:37.325Z,65.83
2022-08-19T05:11:14.157Z,66.02
2022-08-19T05:13:43.276Z,65.82
2022-08-19T05:16:12.995Z,65.80
2022-08-19T05:18:58.553Z,65.61
2022-08-19T05:21:46.355Z,65.82
2022-08-19T05:24:15.442Z,65.39
2022-08-19T05:26:47.307Z,65.69
2022-08-19T05:29:17.330Z,67.35
2022-08-19T05:31:46.075Z,67.36
2022-08-19T05:34:18.274Z,67.84
2022-08-19T05:36:50.996Z,67.45
2022-08-19T05:39:22.210Z,66.81
2022-08-19T05:41:53.781Z,66.12
2022-08-19T05:44:22.703Z,68.16
2022-08-19T05:46:53.935Z,67.76
2022-08-19T05:49:23.767Z,68.11
2022-08-19T05:51:53.793Z,67.57
2022-08-19T05:54:23.932Z,67.39
2022-08-19T05:56:52.780Z,68.79
2022-08-19T05:59:22.513Z,68.47
2022-08-19T06:01:55.445Z,69.93
2022-08-19T06:04:23.919Z,69.13
2022-08-19T06:06:55.037Z,68.33
2022-08-19T06:09:24.306Z,68.64
2022-08-19T06:11:56.054Z,69.09
2022-08-19T06:14:28.087Z,67.89
2022-08-19T06:16:56.680Z,67.99
2022-08-19T06:19:26.301Z,67.23
2022-08-19T06:21:55.548Z,66.94
2022-08-19T06:24:25.799Z,66.67
2022-08-19T06:26:59.190Z,65.82
2022-08-19T06:29:32.300Z,64.83
2022-08-19T06:32:04.104Z,63.24
2022-08-19T06:34:35.943Z,62.32
2022-08-19T06:37:06.777Z,63.81
2022-08-19T06:39:37.018Z,62.93
2022-08-19T06:42:10.290Z,63.34
2022-08-19T06:44:43.319Z,63.96
2022-08-19T06:47:23.850Z,64.19
2022-08-19T06:50:01.075Z,65.15
2022-08-19T06:52:34.332Z,63.87
2022-08-19T06:55:06.179Z,64.61
2022-08-19T06:57:35.564Z,65.59
2022-08-19T07:00:04.554Z,66.07
2022-08-19T07:02:32.631Z,65.59
2022-08-19T07:05:03.555Z,64.44
2022-08-19T07:07:36.229Z,64.01
2022-08-19T07:10:07.809Z,63.12
2022-08-19T07:12:38.028Z,63.67
2022-08-19T07:15:09.838Z,62.70
2022-08-19T07:17:40.340Z,64.55
2022-08-19T07:20:11.205Z,65.88
2022-08-19T07:22:41.196Z,65.59
2022-08-19T07:25:10.367Z,65.71
2022-08-19T07:27:46.169Z,65.14
2022-08-19T07:30:14.884Z,65.25
2022-08-19T07:32:44.139Z,65.93
2022-08-19T07:35:13.020Z,66.18
2022-08-19T07:37:45.350Z,65.85
2022-08-19T07:40:14.934Z,65.60
2022-08-19T07:42:43.793Z,66.56
2022-08-19T07:45:12.220Z,66.58
2022-08-19T07:47:47.521Z,67.28
2022-08-19T07:50:21.392Z,67.31
2022-08-19T07:52:52.826Z,67.55
2022-08-19T07:55:40.415Z,66.99
2022-08-19T07:58:11.795Z,66.84
2022-08-19T08:00:40.095Z,66.77
2022-08-19T08:03:09.560Z,67.26
2022-08-19T08:05:55.158Z,66.63
2022-08-19T08:08:43.953Z,67.38
2022-08-19T08:11:13.439Z,67.68
2022-08-19T08:13:43.767Z,67.52
2022-08-19T08:16:13.962Z,66.73
2022-08-19T08:18:50.573Z,66.42
2022-08-19T08:21:21.147Z,66.60
2022-08-19T08:23:53.131Z,66.31
2022-08-19T08:26:22.440Z,65.91
2022-08-19T08:28:50.932Z,66.71
2022-08-19T08:31:45.351Z,67.28
2022-08-19T08:34:15.160Z,66.74
2022-08-19T08:36:46.796Z,67.38
2022-08-19T08:39:19.605Z,69.21
2022-08-19T08:41:55.216Z,69.58
2022-08-19T08:44:29.911Z,68.76
2022-08-19T08:47:02.827Z,68.29
2022-08-19T08:49:35.985Z,67.55
2022-08-19T08:52:08.127Z,67.63
2022-08-19T08:54:48.817Z,66.13
2022-08-19T08:57:30.563Z,65.07
2022-08-19T09:00:15.865Z,64.31
2022-08-19T09:02:44.283Z,64.08
2022-08-19T09:05:16.668Z,64.64
2022-08-19T09:07:57.763Z,64.91
2022-08-19T09:10:33.975Z,65.48
2022-08-19T09:13:12.652Z,65.62
2022-08-19T09:15:45.546Z,66.95
2022-08-19T09:18:19.529Z,66.40
2022-08-19T09:20:49.304Z,65.73
2022-08-19T09:23:18.008Z,63.61
2022-08-19T09:25:56.534Z,62.89
2022-08-19T09:28:27.464Z,61.83
2022-08-19T09:30:55.451Z,61.52
2022-08-19T09:33:24.185Z,62.21
2022-08-19T09:35:53.754Z,62.29
2022-08-19T09:38:22.415Z,63.88
2022-08-19T09:40:51.043Z,64.00
2022-08-19T09:43:33.737Z,64.21
2022-08-19T09:46:11.200Z,63.08
2022-08-19T09:48:39.902Z,62.83
2022-08-19T09:51:11.901Z,62.95
2022-08-19T09:53:40.823Z,63.39
2022-08-19T09:56:09.410Z,62.99
2022-08-19T09:58:39.308Z,61.94
2022-08-19T10:01:09.342Z,60.87
2022-08-19T10:03:38.353Z,61.38
2022-08-19T10:06:15.214Z,61.43
2022-08-19T10:08:50.447Z,60.20
2022-08-19T10:11:28.692Z,60.06
2022-08-19T10:14:07.462Z,60.87
2022-08-19T10:16:39.578Z,60.71
2022-08-19T10:19:08.817Z,60.19
2022-08-19T10:21:38.073Z,61.29
2022-08-19T10:24:09.492Z,60.33
2022-08-19T10:26:42.604Z,62.51
2022-08-19T10:29:12.778Z,62.01
2022-08-19T10:32:00.858Z,61.65
2022-08-19T10:34:31.026Z,60.03
2022-08-19T10:37:02.267Z,59.65
2022-08-19T10:39:32.100Z,61.04
2022-08-19T10:42:11.546Z,60.29
2022-08-19T10:44:41.425Z,62.31
2022-08-19T10:47:17.392Z,62.79
2022-08-19T10:50:11.777Z,62.78
2022-08-19T10:52:50.099Z,61.68
2022-08-19T10:55:39.243Z,61.45
2022-08-19T10:58:14.199Z,63.37
2022-08-19T11:00:44.836Z,64.10
2022-08-19T11:03:13.133Z,64.40
2022-08-19T11:05:41.635Z,65.07
2022-08-19T11:08:22.967Z,64.66
2022-08-19T11:10:52.528Z,65.95
2022-08-19T11:13:20.421Z,66.86
2022-08-19T11:15:49.766Z,67.44
2022-08-19T11:18:18.285Z,67.41
2022-08-19T11:20:46.330Z,65.49
2022-08-19T11:23:14.239Z,63.71
2022-08-19T11:25:42.693Z,62.86
2022-08-19T11:28:10.594Z,62.45
2022-08-19T11:30:39.313Z,60.77
2022-08-19T11:33:12.181Z,61.81
2022-08-19T11:35:41.995Z,61.29
2022-08-19T11:38:10.013Z,61.82
2022-08-19T11:40:38.219Z,61.68
2022-08-19T11:43:06.129Z,60.61
2022-08-19T11:45:34.190Z,60.26
2022-08-19T11:48:02.835Z,60.12
2022-08-19T11:50:32.069Z,59.47
2022-08-19T11:53:00.206Z,59.74
2022-08-19T11:55:28.247Z,57.69
2022-08-19T11:57:56.276Z,56.73
2022-08-19T12:00:33.802Z,56.02
2022-08-19T12:03:01.865Z,55.23
2022-08-19T12:05:29.929Z,54.74
2022-08-19T12:08:04.605Z,55.41
2022-08-19T12:10:32.687Z,56.09
2022-08-19T12:13:01.605Z,54.85
2022-08-19T12:15:45.016Z,55.39
2022-08-19T12:18:14.861Z,53.93
2022-08-19T12:20:44.743Z,52.19
2022-08-19T12:23:14.152Z,51.81
2022-08-19T12:25:49.424Z,51.47
2022-08-19T12:28:17.508Z,48.73
2022-08-19T12:31:12.996Z,50.79
2022-08-19T12:33:43.642Z,51.15
2022-08-19T12:36:15.107Z,51.42
2022-08-19T12:38:45.070Z,49.94
2022-08-19T12:41:15.392Z,50.00
2022-08-19T12:43:43.398Z,49.78
2022-08-19T12:46:17.465Z,48.95
2022-08-19T12:48:47.774Z,48.41
2022-08-19T12:51:21.475Z,47.97
2022-08-19T12:53:50.838Z,47.35
2022-08-19T12:56:23.059Z,45.11
2022-08-19T12:58:53.108Z,44.56
2022-08-19T13:01:22.684Z,45.06
2022-08-19T13:03:53.267Z,45.74
2022-08-19T13:06:22.352Z,44.25
2022-08-19T13:08:52.002Z,44.98
2022-08-19T13:11:25.348Z,45.22
2022-08-19T13:13:56.242Z,44.46
2022-08-19T13:16:24.258Z,45.75
2022-08-19T13:18:53.085Z,44.79
2022-08-19T13:21:23.167Z,45.30
2022-08-19T13:23:53.071Z,45.84
2022-08-19T13:26:21.300Z,47.00
2022-08-19T13:29:07.888Z,47.99
2022-08-19T13:31:55.471Z,47.19
2022-08-19T13:34:30.948Z,46.53
2022-08-19T13:36:59.988Z,47.37
2022-08-19T13:39:31.041Z,47.78
2022-08-19T13:42:01.278Z,47.37
2022-08-19T13:44:31.307Z,47.48
2022-08-19T13:47:06.929Z,47.72
2022-08-19T13:49:37.238Z,46.98
2022-08-19T13:52:06.544Z,46.27
2022-08-19T13:54:35.939Z,43.98
2022-08-19T13:57:03.891Z,43.29
2022-08-19T13:59:31.892Z,43.87
2022-08-19T14:02:00.548Z,44.48
2022-08-19T14:08:28.897Z,42.74
2022-08-19T14:10:58.267Z,42.65
2022-08-19T14:13:26.697Z,43.96
2022-08-19T14:15:54.589Z,44.57
2022-08-19T14:18:22.783Z,44.84
2022-08-19T14:20:54.825Z,46.08
2022-08-19T14:23:23.334Z,46.99
2022-08-19T14:25:51.748Z,46.95
2022-08-19T14:28:20.923Z,47.23
2022-08-19T14:30:55.212Z,48.94
2022-08-19T14:33:28.413Z,49.23
2022-08-19T14:35:59.884Z,49.06
2022-08-19T14:38:32.468Z,49.84
2022-08-19T14:41:12.358Z,49.13
2022-08-19T14:44:06.147Z,48.50
2022-08-19T14:46:35.087Z,47.25
2022-08-19T14:49:09.315Z,46.24
2022-08-19T14:51:37.701Z,47.78
2022-08-19T14:54:05.756Z,49.22
2022-08-19T14:56:33.791Z,49.74
2022-08-19T14:59:03.153Z,50.45
2022-08-19T15:01:31.208Z,51.53
2022-08-19T15:03:59.154Z,49.66
2022-08-19T15:06:27.902Z,49.55
2022-08-19T15:08:57.768Z,49.39
2022-08-19T15:11:30.171Z,49.32
2022-08-19T15:13:58.650Z,47.95
2022-08-19T15:16:28.776Z,45.63
2022-08-19T15:18:58.796Z,46.32
2022-08-19T15:21:27.600Z,48.26
2022-08-19T15:23:56.483Z,48.59
2022-08-19T15:26:25.720Z,49.71
2022-08-19T15:28:53.584Z,49.43
2022-08-19T15:31:28.053Z,49.47
2022-08-19T15:33:59.410Z,49.71
2022-08-19T15:36:29.285Z,48.70
2022-08-19T15:38:57.760Z,48.77
2022-08-19T15:41:29.093Z,48.03
2022-08-19T15:43:59.813Z,47.88
2022-08-19T15:46:30.503Z,48.44
2022-08-19T15:49:00.810Z,48.32
2022-08-19T15:51:31.344Z,49.92
2022-08-19T15:54:00.226Z,49.98
2022-08-19T15:56:58.463Z,51.48
2022-08-19T15:59:47.147Z,52.02
2022-08-19T16:02:37.173Z,52.89
2022-08-19T16:05:26.837Z,53.44
2022-08-19T16:07:55.413Z,53.72
2022-08-19T16:10:26.448Z,52.97
2022-08-19T16:12:56.413Z,54.83
2022-08-19T16:15:24.735Z,56.36
2022-08-19T16:17:56.351Z,55.50
2022-08-19T16:20:28.093Z,56.38
2022-08-19T16:22:58.242Z,56.31
2022-08-19T16:25:29.096Z,56.21
2022-08-19T16:28:07.977Z,56.83
2022-08-19T16:30:38.562Z,58.28
2022-08-19T16:33:08.140Z,58.34
2022-08-19T16:35:38.357Z,59.05
2022-08-19T16:38:07.088Z,59.33
2022-08-19T16:40:38.157Z,59.93
2022-08-19T16:43:08.476Z,60.40
2022-08-19T16:45:36.491Z,60.00
2022-08-19T16:48:04.905Z,60.89
2022-08-19T16:50:48.759Z,61.04
2022-08-19T16:53:21.352Z,60.46
2022-08-19T16:55:50.816Z,60.83
2022-08-19T16:58:19.299Z,60.34
2022-08-19T17:00:48.510Z,60.47
2022-08-19T17:03:17.896Z,60.03
2022-08-19T17:05:47.409Z,60.93
2022-08-19T17:08:16.889Z,61.17
2022-08-19T17:11:07.890Z,60.86
2022-08-19T17:13:35.489Z,62.04
2022-08-19T17:16:03.635Z,62.19
2022-08-19T17:18:32.754Z,63.45
2022-08-19T17:21:01.535Z,62.98
2022-08-19T17:23:42.853Z,63.26
2022-08-19T17:26:18.031Z,62.80
2022-08-19T17:28:49.735Z,62.65
2022-08-19T17:31:19.456Z,63.59
2022-08-19T17:33:49.000Z,63.80
2022-08-19T17:36:18.322Z,63.69
2022-08-19T17:38:46.847Z,64.18
2022-08-19T17:41:16.281Z,64.22
2022-08-19T17:43:45.295Z,64.82
2022-08-19T17:46:17.925Z,64.21
2022-08-19T17:48:51.751Z,64.33
2022-08-19T17:51:23.402Z,63.76
2022-08-19T17:53:52.444Z,63.20
2022-08-19T17:56:23.510Z,63.85
2022-08-19T17:59:00.166Z,63.87
2022-08-19T18:01:41.606Z,64.29
2022-08-19T18:04:18.932Z,65.03
2022-08-19T18:06:53.067Z,65.20
2022-08-19T18:09:24.415Z,65.04
2022-08-19T18:11:57.002Z,65.18
2022-08-19T18:14:33.505Z,64.10
2022-08-19T18:17:06.317Z,63.84
2022-08-19T18:19:41.715Z,64.08
2022-08-19T18:22:12.717Z,64.54
2022-08-19T18:24:41.610Z,64.89
2022-08-19T18:27:11.061Z,65.37
2022-08-19T18:29:40.227Z,64.42
2022-08-19T18:32:12.667Z,64.72
2022-08-19T18:34:43.135Z,65.19
2022-08-19T18:39:57.929Z,64.43
2022-08-19T18:42:45.126Z,65.45
2022-08-19T18:45:30.921Z,66.31
2022-08-19T18:48:26.893Z,65.69
2022-08-19T18:50:58.166Z,65.92
2022-08-19T18:53:27.325Z,66.64
2022-08-19T18:55:55.565Z,65.97
2022-08-19T18:58:28.281Z,66.12
2022-08-19T19:00:57.309Z,65.80
2022-08-19T19:03:26.320Z,65.91
2022-08-19T19:05:54.844Z,65.97
2022-08-19T19:08:27.012Z,66.07
2022-08-19T19:10:56.932Z,65.89
2022-08-19T19:13:28.784Z,66.41
2022-08-19T19:15:56.969Z,67.08
2022-08-19T19:18:25.153Z,68.91
2022-08-19T19:20:53.151Z,69.55
2022-08-19T19:23:21.700Z,69.10
2022-08-19T19:25:51.369Z,69.25
2022-08-19T19:28:23.939Z,69.18
2022-08-19T19:30:57.549Z,69.73
2022-08-19T19:33:26.580Z,69.66
2022-08-19T19:35:55.220Z,70.63
2022-08-19T19:38:23.141Z,70.33
2022-08-19T19:40:51.110Z,70.74
2022-08-19T19:43:19.162Z,71.05
2022-08-19T19:45:49.282Z,70.69
2022-08-19T19:48:18.762Z,70.86
2022-08-19T19:50:47.851Z,70.68
2022-08-19T19:53:22.498Z,70.22
2022-08-19T19:55:51.624Z,69.95
2022-08-19T19:58:21.240Z,70.31
2022-08-19T20:00:57.607Z,70.91
2022-08-19T20:03:26.969Z,70.20
2022-08-19T20:05:55.027Z,71.40
2022-08-19T20:08:40.334Z,71.79
2022-08-19T20:11:08.436Z,71.76
2022-08-19T20:13:36.307Z,71.92
2022-08-19T20:16:04.588Z,71.83
2022-08-19T20:18:33.780Z,72.02
2022-08-19T20:21:01.858Z,72.01
2022-08-19T20:23:29.763Z,71.57
2022-08-19T20:25:57.691Z,71.63
2022-08-19T20:28:26.372Z,71.31
2022-08-19T20:30:54.467Z,71.89
2022-08-19T20:33:22.854Z,72.17
2022-08-19T20:35:52.790Z,72.77
2022-08-19T20:38:20.786Z,73.46
2022-08-19T20:40:48.801Z,74.69
2022-08-19T20:43:16.655Z,74.70
2022-08-19T20:45:44.929Z,75.79
2022-08-19T20:48:13.657Z,75.05
2022-08-19T20:50:41.698Z,75.45
2022-08-19T20:53:13.163Z,74.76
2022-08-19T20:55:44.407Z,75.13
2022-08-19T20:58:13.575Z,74.71
2022-08-19T21:00:44.033Z,75.49
2022-08-19T21:03:12.367Z,75.50
2022-08-19T21:05:40.437Z,75.49
2022-08-19T21:08:09.175Z,75.23
2022-08-19T21:10:41.830Z,75.77
2022-08-19T21:13:10.658Z,75.01
2022-08-19T21:15:41.570Z,74.45
2022-08-19T21:18:10.474Z,74.49
2022-08-19T21:20:39.013Z,74.38
2022-08-19T21:23:12.373Z,74.69
2022-08-19T21:25:41.781Z,74.13
2022-08-19T21:28:29.954Z,73.74
2022-08-19T21:31:06.420Z,73.59
2022-08-19T21:33:35.086Z,74.49
2022-08-19T21:36:04.938Z,74.53
2022-08-19T21:38:33.546Z,73.97
2022-08-19T21:41:06.185Z,73.87
2022-08-19T21:43:34.691Z,73.86
2022-08-19T21:46:02.768Z,74.26
2022-08-19T21:48:30.706Z,74.71
2022-08-19T21:50:58.607Z,75.56
2022-08-19T21:53:31.675Z,76.57
2022-08-19T21:56:03.824Z,76.76
2022-08-19T21:58:31.645Z,76.67
2022-08-19T22:01:00.501Z,77.29
2022-08-19T22:03:28.913Z,77.71
2022-08-19T22:05:58.726Z,76.95
2022-08-19T22:08:27.374Z,76.55
2022-08-19T22:10:55.998Z,77.04
2022-08-19T22:13:29.023Z,77.14
2022-08-19T22:15:56.967Z,76.42
2022-08-19T22:18:25.017Z,76.95
2022-08-19T22:20:52.929Z,76.75
2022-08-19T22:23:21.050Z,77.46
2022-08-19T22:25:49.154Z,77.54
2022-08-19T22:28:18.752Z,78.06
2022-08-19T22:30:55.484Z,78.36
2022-08-19T22:33:31.773Z,78.12
2022-08-19T22:36:02.270Z,77.37
2022-08-19T22:38:31.697Z,77.38
2022-08-19T22:41:07.602Z,77.35
2022-08-19T22:43:37.739Z,76.13
2022-08-19T22:46:16.837Z,75.39
2022-08-19T22:49:01.108Z,75.33
2022-08-19T22:51:51.459Z,76.42
2022-08-19T22:54:20.149Z,77.29
2022-08-19T22:56:48.676Z,77.28
2022-08-19T22:59:20.450Z,76.92
2022-08-19T23:01:53.314Z,76.46
2022-08-19T23:04:23.012Z,76.54
2022-08-19T23:06:54.493Z,76.57
2022-08-19T23:09:24.285Z,76.34
2022-08-19T23:11:59.573Z,76.82
2022-08-19T23:14:28.305Z,77.28
2022-08-19T23:16:59.280Z,77.04
2022-08-19T23:19:27.969Z,77.63
2022-08-19T23:21:56.406Z,77.71
2022-08-19T23:24:24.596Z,77.91
2022-08-19T23:27:10.155Z,77.82
2022-08-19T23:29:55.792Z,78.04
2022-08-19T23:32:26.066Z,78.19
2022-08-19T23:34:56.675Z,77.57
2022-08-19T23:37:25.482Z,77.85
2022-08-19T23:39:53.549Z,77.90
2022-08-19T23:42:21.556Z,77.62
2022-08-19T23:44:51.685Z,77.80
2022-08-19T23:47:23.938Z,78.12
2022-08-19T23:50:04.714Z,77.77
2022-08-19T23:52:33.840Z,77.91
2022-08-19T23:55:06.398Z,77.77
2022-08-19T23:57:40.243Z,77.58
